GMFF/FEZ METAR and TAF weather

Enter ICAO airport designator
Station Type Date Time Source
GMFF METAR 2022/08/12 15:30 UTC NOAA

GMFF 121530Z 14016KT 9999 BKN033 FEW040CB 40/05 Q1014 TEMPO TS


Station Type Date Time Source
GMFF Decoded METAR 2022/08/12 15:30 UTC NOAA

Fes-Sais, Morocco (GMFF) 33-56N 004-59W 579M
Aug 12, 2022 - 11:30 AM EDT / 2022.08.12 1530 UTC
Wind: from the SE (140 degrees) at 18 MPH (16 KT):0
Visibility: greater than 7 mile(s):0
Sky conditions: mostly cloudy
Weather: Cumulonimbus clouds observed
Temperature: 104 F (40 C)
Dew Point: 41 F (5 C)
Relative Humidity: 11%
Pressure (altimeter): 29.94 in. Hg (1014 hPa)
ob: GMFF 121530Z 14016KT 9999 BKN033 FEW040CB 40/05 Q1014 TEMPO TS
cycle: 15

Station Type Date Time Source
GMFF TAF 2022/08/12 12:18 UTC NOAA

TAF TAF GMFF 121100Z 1212/1318 04010KT 9999 SCT030 FEW040CB PROB30
TEMPO 1213/1218 18015G26KT 4000 TSRA
BECMG 1219/1221 12006KT CAVOK

Example: see airport list